createdAt,value
2022-12-18T00:00:59.288Z,101791.47
2022-12-18T00:04:07.737Z,101794.88
2022-12-18T00:07:10.517Z,101792.06
2022-12-18T00:10:15.488Z,101803.13
2022-12-18T00:13:18.360Z,101803.94
2022-12-18T00:16:23.404Z,101821.44
2022-12-18T00:19:26.375Z,101816.84
2022-12-18T00:22:29.035Z,101826.09
2022-12-18T00:25:34.538Z,101827.72
2022-12-18T00:28:37.616Z,101844.63
2022-12-18T00:31:43.243Z,101841.81
2022-12-18T00:34:47.915Z,101847.88
2022-12-18T00:37:51.446Z,101858.72
2022-12-18T00:40:54.246Z,101868.19
2022-12-18T00:43:56.691Z,101866.97
2022-12-18T00:46:59.574Z,101875.25
2022-12-18T00:50:02.249Z,101880.69
2022-12-18T00:53:05.211Z,101881.69
2022-12-18T00:56:08.114Z,101886.13
2022-12-18T00:59:10.829Z,101885.31
2022-12-18T01:02:15.075Z,101894.78
2022-12-18T01:05:19.578Z,101904.66
2022-12-18T01:08:22.246Z,101902.63
2022-12-18T01:11:25.300Z,101904.88
2022-12-18T01:14:28.122Z,101905.06
2022-12-18T01:17:31.030Z,101908.28
2022-12-18T01:20:33.891Z,101905.25
2022-12-18T01:23:37.018Z,101912.72
2022-12-18T01:26:39.957Z,101913.72
2022-12-18T01:29:43.647Z,101916.94
2022-12-18T01:32:46.130Z,101921.56
2022-12-18T01:35:48.970Z,101918.75
2022-12-18T01:38:52.889Z,101916.94
2022-12-18T01:42:05.293Z,101924.94
2022-12-18T01:45:16.462Z,101928.59
2022-12-18T01:48:19.973Z,101937.44
2022-12-18T01:51:23.063Z,101934.00
2022-12-18T01:54:25.857Z,101938.84
2022-12-18T01:57:29.743Z,101939.47
2022-12-18T02:00:32.856Z,101939.63
2022-12-18T02:03:35.515Z,101940.81
2022-12-18T02:06:42.401Z,101946.63
2022-12-18T02:09:52.103Z,101946.63
2022-12-18T02:13:20.062Z,101957.72
2022-12-18T02:16:47.189Z,101962.53
2022-12-18T02:20:08.114Z,101959.88
2022-12-18T02:23:31.660Z,101968.16
2022-12-18T02:26:44.846Z,101977.56
2022-12-18T02:29:58.988Z,101979.75
2022-12-18T02:33:08.158Z,101984.75
2022-12-18T02:36:13.999Z,101986.91
2022-12-18T02:39:19.323Z,101991.34
2022-12-18T02:42:33.827Z,101997.38
2022-12-18T02:45:48.085Z,101999.28
2022-12-18T02:48:53.765Z,102012.31
2022-12-18T02:52:20.647Z,102012.00
2022-12-18T02:55:49.935Z,102022.22
2022-12-18T02:59:03.968Z,102025.03
2022-12-18T03:02:25.785Z,102020.41
2022-12-18T03:05:37.443Z,102024.63
2022-12-18T03:08:44.963Z,102035.69
2022-12-18T03:12:13.705Z,102041.69
2022-12-18T03:15:31.775Z,102048.38
2022-12-18T03:18:58.537Z,102049.00
2022-12-18T03:22:04.973Z,102041.97
2022-12-18T03:25:20.117Z,102045.66
2022-12-18T03:28:23.979Z,102059.66
2022-12-18T03:31:37.055Z,102049.53
2022-12-18T03:34:43.471Z,102065.41
2022-12-18T03:37:49.553Z,102063.25
2022-12-18T03:41:03.284Z,102058.19
2022-12-18T03:44:17.546Z,102071.78
2022-12-18T03:47:30.064Z,102071.34
2022-12-18T03:51:02.861Z,102079.81
2022-12-18T03:54:07.947Z,102089.09
2022-12-18T03:57:24.298Z,102089.78
2022-12-18T04:00:31.464Z,102097.81
2022-12-18T04:03:43.932Z,102101.00
2022-12-18T04:06:50.240Z,102111.00
2022-12-18T04:09:57.759Z,102117.91
2022-12-18T04:13:00.668Z,102115.22
2022-12-18T04:16:04.766Z,102123.06
2022-12-18T04:19:08.050Z,102122.53
2022-12-18T04:22:16.079Z,102116.97
2022-12-18T04:25:22.871Z,102129.41
2022-12-18T04:28:42.647Z,102138.41
2022-12-18T04:31:45.829Z,102140.72
2022-12-18T04:34:48.571Z,102147.03
2022-12-18T04:37:54.274Z,102138.41
2022-12-18T04:40:57.912Z,102150.28
2022-12-18T04:44:02.940Z,102150.00
2022-12-18T04:47:05.655Z,102154.88
2022-12-18T04:50:08.560Z,102149.00
2022-12-18T04:53:11.439Z,102157.94
2022-12-18T04:56:15.725Z,102166.00
2022-12-18T04:59:18.338Z,102172.56
2022-12-18T05:02:21.370Z,102169.97
2022-12-18T05:05:24.029Z,102170.88
2022-12-18T05:08:27.028Z,102193.09
2022-12-18T05:11:29.910Z,102192.91
2022-12-18T05:14:32.349Z,102195.06
2022-12-18T05:17:35.070Z,102207.94
2022-12-18T05:20:37.630Z,102212.19
2022-12-18T05:23:41.055Z,102214.38
2022-12-18T05:26:44.088Z,102226.69
2022-12-18T05:29:46.755Z,102218.25
2022-12-18T05:32:49.403Z,102224.72
2022-12-18T05:35:57.458Z,102216.16
2022-12-18T05:39:01.287Z,102223.72
2022-12-18T05:42:04.218Z,102223.66
2022-12-18T05:45:07.284Z,102238.69
2022-12-18T05:48:13.234Z,102236.59
2022-12-18T05:51:17.774Z,102238.94
2022-12-18T05:54:20.484Z,102242.00
2022-12-18T05:57:23.126Z,102251.03
2022-12-18T06:00:25.987Z,102258.56
2022-12-18T06:03:33.714Z,102269.03
2022-12-18T06:06:36.962Z,102267.06
2022-12-18T06:09:39.880Z,102272.91
2022-12-18T06:12:42.756Z,102278.22
2022-12-18T06:15:45.217Z,102288.47
2022-12-18T06:18:48.270Z,102283.72
2022-12-18T06:21:51.781Z,102290.22
2022-12-18T06:24:54.767Z,102289.13
2022-12-18T06:27:57.614Z,102295.63
2022-12-18T06:31:00.828Z,102303.19
2022-12-18T06:34:05.007Z,102312.22
2022-12-18T06:37:07.868Z,102309.31
2022-12-18T06:40:10.792Z,102312.75
2022-12-18T06:43:13.796Z,102318.66
2022-12-18T06:46:16.496Z,102317.34
2022-12-18T06:49:19.391Z,102322.84
2022-12-18T06:52:21.918Z,102326.50
2022-12-18T06:55:24.771Z,102329.50
2022-12-18T06:58:29.675Z,102335.69
2022-12-18T07:01:32.577Z,102351.84
2022-12-18T07:04:55.607Z,102351.19
2022-12-18T07:07:59.372Z,102364.09
2022-12-18T07:11:05.360Z,102368.50
2022-12-18T07:14:08.143Z,102369.59
2022-12-18T07:17:10.958Z,102376.69
2022-12-18T07:20:14.204Z,102380.47
2022-12-18T07:23:16.865Z,102390.72
2022-12-18T07:26:21.537Z,102391.31
2022-12-18T07:29:24.766Z,102395.13
2022-12-18T07:32:30.550Z,102398.47
2022-12-18T07:35:43.442Z,102389.41
2022-12-18T07:38:49.468Z,102407.81
2022-12-18T07:42:10.820Z,102412.59
2022-12-18T07:45:16.732Z,102412.75
2022-12-18T07:48:19.431Z,102421.19
2022-12-18T07:51:22.592Z,102423.97
2022-12-18T07:54:25.928Z,102422.00
2022-12-18T08:00:51.883Z,102433.63
2022-12-18T08:03:54.520Z,102439.47
2022-12-18T08:06:57.390Z,102433.31
2022-12-18T08:09:59.930Z,102430.25
2022-12-18T08:13:05.151Z,102446.59
2022-12-18T08:16:08.751Z,102442.72
2022-12-18T08:19:11.488Z,102448.59
2022-12-18T08:22:14.487Z,102453.47
2022-12-18T08:25:17.132Z,102446.19
2022-12-18T08:28:20.296Z,102452.88
2022-12-18T08:31:23.624Z,102457.88
2022-12-18T08:34:27.275Z,102452.69
2022-12-18T08:37:30.313Z,102470.91
2022-12-18T08:40:33.223Z,102465.75
2022-12-18T08:43:54.986Z,102471.13
2022-12-18T08:46:57.836Z,102467.72
2022-12-18T08:50:00.260Z,102483.63
2022-12-18T08:53:03.485Z,102491.03
2022-12-18T08:56:06.575Z,102501.84
2022-12-18T08:59:15.787Z,102506.50
2022-12-18T09:02:21.767Z,102505.25
2022-12-18T09:05:24.675Z,102495.69
2022-12-18T09:08:28.020Z,102502.63
2022-12-18T09:11:31.701Z,102508.63
2022-12-18T09:14:34.391Z,102512.75
2022-12-18T09:17:37.401Z,102517.56
2022-12-18T09:20:40.419Z,102520.09
2022-12-18T09:23:43.668Z,102524.72
2022-12-18T09:26:47.319Z,102523.31
2022-12-18T09:29:50.879Z,102528.34
2022-12-18T09:32:54.991Z,102536.06
2022-12-18T09:35:57.751Z,102530.78
2022-12-18T09:39:04.987Z,102536.25
2022-12-18T09:42:21.808Z,102535.22
2022-12-18T09:45:25.176Z,102537.84
2022-12-18T09:48:38.455Z,102533.59
2022-12-18T09:51:48.268Z,102539.28
2022-12-18T09:55:09.847Z,102545.31
2022-12-18T09:58:25.451Z,102536.47
2022-12-18T10:01:38.948Z,102539.53
2022-12-18T10:04:58.115Z,102538.25
2022-12-18T10:08:12.931Z,102537.53
2022-12-18T10:11:53.227Z,102535.75
2022-12-18T10:15:24.641Z,102535.94
2022-12-18T10:18:45.217Z,102533.59
2022-12-18T10:22:18.059Z,102525.84
2022-12-18T10:25:35.342Z,102524.88
2022-12-18T10:28:41.111Z,102521.75
2022-12-18T10:31:44.178Z,102518.16
2022-12-18T10:34:48.979Z,102515.22
2022-12-18T10:38:22.734Z,102516.22
2022-12-18T10:41:33.183Z,102526.75
2022-12-18T10:44:35.906Z,102545.53
2022-12-18T10:47:44.658Z,102535.38
2022-12-18T10:54:20.666Z,102537.84
2022-12-18T10:57:34.759Z,102536.91
2022-12-18T11:00:38.288Z,102533.41
2022-12-18T11:03:43.630Z,102528.28
2022-12-18T11:07:02.770Z,102520.03
2022-12-18T11:10:06.897Z,102526.75
2022-12-18T11:13:17.943Z,102526.56
2022-12-18T11:16:21.267Z,102515.91
2022-12-18T11:19:38.259Z,102521.59
2022-12-18T11:22:41.228Z,102517.69
2022-12-18T11:25:53.573Z,102523.09
2022-12-18T11:29:11.300Z,102529.97
2022-12-18T11:32:37.223Z,102521.75
2022-12-18T11:35:53.439Z,102515.31
2022-12-18T11:38:58.755Z,102517.72
2022-12-18T11:42:12.780Z,102521.28
2022-12-18T11:45:25.000Z,102517.84
2022-12-18T11:48:40.312Z,102509.44
2022-12-18T11:51:53.443Z,102519.19
2022-12-18T11:55:00.982Z,102513.88
2022-12-18T11:58:09.674Z,102509.00
2022-12-18T12:01:18.095Z,102502.72
2022-12-18T12:05:02.399Z,102502.41
2022-12-18T12:08:46.560Z,102502.13
2022-12-18T12:11:52.190Z,102493.94
2022-12-18T12:15:14.412Z,102513.94
2022-12-18T12:18:28.082Z,102509.56
2022-12-18T12:21:39.719Z,102501.44
2022-12-18T12:24:51.319Z,102498.94
2022-12-18T12:28:19.747Z,102501.72
2022-12-18T12:31:44.415Z,102501.00
2022-12-18T12:35:10.189Z,102508.19
2022-12-18T12:38:16.327Z,102506.56
2022-12-18T12:41:42.136Z,102501.19
2022-12-18T12:44:56.334Z,102505.81
2022-12-18T12:48:02.539Z,102497.44
2022-12-18T12:51:15.024Z,102510.00
2022-12-18T12:54:24.584Z,102518.88
2022-12-18T12:57:41.510Z,102524.53
2022-12-18T13:01:02.708Z,102541.50
2022-12-18T13:04:19.796Z,102524.94
2022-12-18T13:07:33.491Z,102529.78
2022-12-18T13:10:43.348Z,102524.41
2022-12-18T13:13:51.496Z,102534.00
2022-12-18T13:17:20.374Z,102535.31
2022-12-18T13:20:33.516Z,102531.16
2022-12-18T13:23:41.258Z,102544.16
2022-12-18T13:26:44.481Z,102557.94
2022-12-18T13:29:48.392Z,102560.34
2022-12-18T13:33:21.758Z,102566.25
2022-12-18T13:36:31.584Z,102575.53
2022-12-18T13:39:36.082Z,102584.97
2022-12-18T13:42:59.753Z,102583.34
2022-12-18T13:46:06.895Z,102592.66
2022-12-18T13:49:36.067Z,102591.47
2022-12-18T13:52:41.415Z,102605.34
2022-12-18T13:55:46.515Z,102601.25
2022-12-18T13:59:27.929Z,102625.84
2022-12-18T14:02:31.657Z,102612.94
2022-12-18T14:05:38.697Z,102612.84
2022-12-18T14:08:46.176Z,102625.59
2022-12-18T14:11:54.943Z,102621.25
2022-12-18T14:14:59.410Z,102619.28
2022-12-18T14:18:15.358Z,102623.63
2022-12-18T14:21:31.575Z,102628.13
2022-12-18T14:24:36.316Z,102630.47
2022-12-18T14:27:45.582Z,102629.09
2022-12-18T14:34:05.568Z,102635.81
2022-12-18T14:37:12.773Z,102631.75
2022-12-18T14:40:15.752Z,102626.81
2022-12-18T14:50:04.915Z,102639.28
2022-12-18T14:53:32.927Z,102639.91
2022-12-18T14:56:48.413Z,102638.81
2022-12-18T15:03:19.660Z,102640.56
2022-12-18T15:06:32.448Z,102638.03
2022-12-18T15:09:36.814Z,102642.81
2022-12-18T15:13:14.259Z,102645.19
2022-12-18T15:16:22.511Z,102650.94
2022-12-18T15:23:03.891Z,102666.91
2022-12-18T15:29:30.003Z,102671.44
2022-12-18T15:36:15.740Z,102666.38
2022-12-18T15:43:18.994Z,102677.78
2022-12-18T15:46:28.779Z,102673.13
2022-12-18T15:49:33.963Z,102671.28
2022-12-18T15:52:50.235Z,102672.09
2022-12-18T16:02:50.953Z,102695.22
2022-12-18T16:12:44.404Z,102704.19
2022-12-18T16:19:15.872Z,102725.41
2022-12-18T16:28:58.245Z,102734.47
2022-12-18T16:35:23.640Z,102729.81
2022-12-18T16:38:33.978Z,102744.03
2022-12-18T16:54:56.807Z,102756.28
2022-12-18T16:58:00.477Z,102763.47
2022-12-18T17:01:08.738Z,102760.53
2022-12-18T17:04:11.762Z,102757.16
2022-12-18T17:07:17.046Z,102755.88
2022-12-18T17:10:20.065Z,102759.31
2022-12-18T17:13:26.655Z,102756.75
2022-12-18T17:16:29.602Z,102771.13
2022-12-18T17:19:32.386Z,102775.53
2022-12-18T17:22:35.259Z,102776.41
2022-12-18T17:25:40.429Z,102780.47
2022-12-18T17:28:43.704Z,102788.34
2022-12-18T17:31:47.449Z,102793.25
2022-12-18T17:34:50.503Z,102800.56
2022-12-18T17:37:53.383Z,102801.41
2022-12-18T17:41:02.521Z,102806.94
2022-12-18T17:44:05.996Z,102805.31
2022-12-18T17:47:12.291Z,102815.75
2022-12-18T17:50:16.346Z,102814.31
2022-12-18T17:53:19.191Z,102822.94
2022-12-18T17:56:23.805Z,102832.56
2022-12-18T17:59:26.382Z,102824.06
2022-12-18T18:02:29.050Z,102827.03
2022-12-18T18:05:33.306Z,102824.88
2022-12-18T18:08:37.245Z,102818.69
2022-12-18T18:11:59.147Z,102813.31
2022-12-18T18:15:01.976Z,102810.69
2022-12-18T18:18:05.515Z,102801.53
2022-12-18T18:21:09.137Z,102797.28
2022-12-18T18:24:14.782Z,102802.66
2022-12-18T18:27:17.902Z,102798.91
2022-12-18T18:30:20.859Z,102791.25
2022-12-18T18:33:24.058Z,102792.44
2022-12-18T18:36:27.530Z,102784.28
2022-12-18T18:39:30.464Z,102783.16
2022-12-18T18:42:33.636Z,102783.63
2022-12-18T18:45:36.208Z,102792.94
2022-12-18T18:48:41.662Z,102790.31
2022-12-18T18:51:46.607Z,102791.47
2022-12-18T18:55:11.565Z,102792.59
2022-12-18T18:58:12.623Z,102802.38
2022-12-18T19:01:20.481Z,102801.91
2022-12-18T19:04:23.477Z,102807.94
2022-12-18T19:07:30.957Z,102805.44
2022-12-18T19:10:33.852Z,102796.63
2022-12-18T19:13:37.139Z,102806.44
2022-12-18T19:16:40.290Z,102800.22
2022-12-18T19:19:43.666Z,102805.47
2022-12-18T19:22:54.365Z,102811.31
2022-12-18T19:26:26.894Z,102822.28
2022-12-18T19:29:26.799Z,102820.44
2022-12-18T19:32:31.708Z,102832.41
2022-12-18T19:35:34.645Z,102839.56
2022-12-18T19:38:38.079Z,102844.97
2022-12-18T19:41:41.791Z,102850.03
2022-12-18T19:44:48.121Z,102841.22
2022-12-18T19:47:50.871Z,102848.84
2022-12-18T19:50:54.358Z,102868.16
2022-12-18T19:53:59.895Z,102862.91
2022-12-18T19:57:07.266Z,102858.34
2022-12-18T20:00:15.445Z,102859.81
2022-12-18T20:03:28.688Z,102864.56
2022-12-18T20:06:45.190Z,102869.63
2022-12-18T20:09:48.008Z,102868.63
2022-12-18T20:12:50.859Z,102866.50
2022-12-18T20:15:54.393Z,102859.81
2022-12-18T20:18:57.730Z,102851.66
2022-12-18T20:22:01.837Z,102871.22
2022-12-18T20:25:04.839Z,102872.88
2022-12-18T20:28:07.686Z,102864.72
2022-12-18T20:31:13.298Z,102872.03
2022-12-18T20:34:17.112Z,102873.38
2022-12-18T20:37:19.939Z,102873.34
2022-12-18T20:40:24.271Z,102881.53
2022-12-18T20:43:26.766Z,102887.09
2022-12-18T20:46:29.973Z,102894.91
2022-12-18T20:49:32.682Z,102892.63
2022-12-18T20:52:35.666Z,102902.91
2022-12-18T20:55:42.910Z,102909.75
2022-12-18T20:58:45.627Z,102913.84
2022-12-18T21:01:49.438Z,102915.97
2022-12-18T21:04:53.435Z,102911.88
2022-12-18T21:07:56.320Z,102911.22
2022-12-18T21:11:40.732Z,102910.25
2022-12-18T21:14:44.466Z,102925.94
2022-12-18T21:17:47.246Z,102916.75
2022-12-18T21:20:49.962Z,102909.75
2022-12-18T21:23:52.573Z,102915.81
2022-12-18T21:26:55.518Z,102920.19
2022-12-18T21:29:58.281Z,102920.16
2022-12-18T21:33:00.843Z,102919.00
2022-12-18T21:36:07.769Z,102924.41
2022-12-18T21:39:10.695Z,102915.75
2022-12-18T21:42:32.339Z,102916.72
2022-12-18T21:45:34.950Z,102912.63
2022-12-18T21:48:40.738Z,102913.75
2022-12-18T21:51:43.184Z,102904.25
2022-12-18T21:54:45.857Z,102913.91
2022-12-18T21:57:48.380Z,102903.31
2022-12-18T22:00:51.551Z,102906.44
2022-12-18T22:03:54.334Z,102908.88
2022-12-18T22:06:57.583Z,102906.03
2022-12-18T22:10:00.905Z,102910.91
2022-12-18T22:13:07.048Z,102905.00
2022-12-18T22:16:09.560Z,102908.28
2022-12-18T22:19:12.568Z,102906.13
2022-12-18T22:22:17.274Z,102891.81
2022-12-18T22:25:20.047Z,102900.44
2022-12-18T22:28:41.143Z,102894.59
2022-12-18T22:31:44.078Z,102891.31
2022-12-18T22:34:47.097Z,102885.94
2022-12-18T22:37:49.819Z,102890.84
2022-12-18T22:40:52.707Z,102881.69
2022-12-18T22:43:55.740Z,102881.91
2022-12-18T22:47:06.568Z,102891.75
2022-12-18T22:50:13.082Z,102893.19
2022-12-18T22:53:20.006Z,102898.56
2022-12-18T22:56:23.226Z,102890.75
2022-12-18T22:59:26.783Z,102900.16
2022-12-18T23:02:29.656Z,102904.19
2022-12-18T23:05:32.452Z,102899.28
2022-12-18T23:08:35.545Z,102895.34
2022-12-18T23:11:38.174Z,102897.84
2022-12-18T23:14:41.133Z,102895.13
2022-12-18T23:17:43.549Z,102900.97
2022-12-18T23:20:46.576Z,102889.72
2022-12-18T23:23:50.311Z,102893.16
2022-12-18T23:26:53.235Z,102901.66
2022-12-18T23:29:56.022Z,102900.00
2022-12-18T23:33:01.218Z,102906.56
2022-12-18T23:36:05.332Z,102903.47
2022-12-18T23:39:08.294Z,102910.84
2022-12-18T23:42:11.056Z,102910.84
2022-12-18T23:45:17.989Z,102908.38
2022-12-18T23:48:21.240Z,102913.13
2022-12-18T23:51:26.058Z,102914.78
2022-12-18T23:54:32.775Z,102915.59
2022-12-18T23:57:36.663Z,102919.53
